sensor_id;sensor_type;location;lat;lon;timestamp;P1;durP1;ratioP1;P2;durP2;ratioP2
42192;SDS011;52467;40.114;18.306;2022-11-15T00:01:58;16.87;;;10.87;;
42192;SDS011;52467;40.114;18.306;2022-11-15T00:04:44;16.08;;;10.98;;
42192;SDS011;52467;40.114;18.306;2022-11-15T00:07:31;19.73;;;11.85;;
42192;SDS011;52467;40.114;18.306;2022-11-15T00:10:37;17.67;;;11.57;;
42192;SDS011;52467;40.114;18.306;2022-11-15T00:13:23;17.88;;;11.15;;
42192;SDS011;52467;40.114;18.306;2022-11-15T00:16:09;15.25;;;10.25;;
42192;SDS011;52467;40.114;18.306;2022-11-15T00:18:55;17.10;;;10.20;;
42192;SDS011;52467;40.114;18.306;2022-11-15T00:21:42;14.98;;;10.20;;
42192;SDS011;52467;40.114;18.306;2022-11-15T00:24:28;16.00;;;10.05;;
42192;SDS011;52467;40.114;18.306;2022-11-15T00:27:14;14.43;;;10.20;;
42192;SDS011;52467;40.114;18.306;2022-11-15T00:30:01;15.20;;;10.30;;
42192;SDS011;52467;40.114;18.306;2022-11-15T00:32:47;18.38;;;11.07;;
42192;SDS011;52467;40.114;18.306;2022-11-15T00:35:33;15.35;;;10.18;;
42192;SDS011;52467;40.114;18.306;2022-11-15T00:38:19;15.75;;;10.43;;
42192;SDS011;52467;40.114;18.306;2022-11-15T00:41:06;18.20;;;10.50;;
42192;SDS011;52467;40.114;18.306;2022-11-15T00:43:53;15.77;;;11.05;;
42192;SDS011;52467;40.114;18.306;2022-11-15T00:46:39;16.60;;;11.20;;
42192;SDS011;52467;40.114;18.306;2022-11-15T00:49:25;18.33;;;11.65;;
42192;SDS011;52467;40.114;18.306;2022-11-15T00:52:11;18.03;;;11.83;;
42192;SDS011;52467;40.114;18.306;2022-11-15T00:54:57;16.63;;;11.27;;
42192;SDS011;52467;40.114;18.306;2022-11-15T00:57:43;18.33;;;11.27;;
42192;SDS011;52467;40.114;18.306;2022-11-15T01:00:29;15.60;;;10.85;;
42192;SDS011;52467;40.114;18.306;2022-11-15T01:03:15;17.13;;;10.85;;
42192;SDS011;52467;40.114;18.306;2022-11-15T01:06:01;16.63;;;10.98;;
42192;SDS011;52467;40.114;18.306;2022-11-15T01:08:47;16.05;;;10.23;;
42192;SDS011;52467;40.114;18.306;2022-11-15T01:11:33;14.93;;;8.38;;
42192;SDS011;52467;40.114;18.306;2022-11-15T01:14:19;14.43;;;8.93;;
42192;SDS011;52467;40.114;18.306;2022-11-15T01:17:08;13.73;;;7.97;;
42192;SDS011;52467;40.114;18.306;2022-11-15T01:19:54;13.93;;;8.10;;
42192;SDS011;52467;40.114;18.306;2022-11-15T01:22:40;12.75;;;7.90;;
42192;SDS011;52467;40.114;18.306;2022-11-15T01:25:26;10.27;;;6.88;;
42192;SDS011;52467;40.114;18.306;2022-11-15T01:28:12;11.05;;;7.40;;
42192;SDS011;52467;40.114;18.306;2022-11-15T01:30:59;9.98;;;7.20;;
42192;SDS011;52467;40.114;18.306;2022-11-15T01:33:47;11.90;;;7.53;;
42192;SDS011;52467;40.114;18.306;2022-11-15T01:36:33;12.23;;;8.13;;
42192;SDS011;52467;40.114;18.306;2022-11-15T01:39:19;11.50;;;6.95;;
42192;SDS011;52467;40.114;18.306;2022-11-15T01:42:05;12.00;;;7.00;;
42192;SDS011;52467;40.114;18.306;2022-11-15T01:44:51;9.05;;;6.43;;
42192;SDS011;52467;40.114;18.306;2022-11-15T01:47:40;11.30;;;6.72;;
42192;SDS011;52467;40.114;18.306;2022-11-15T01:50:45;10.65;;;6.78;;
42192;SDS011;52467;40.114;18.306;2022-11-15T01:53:31;12.07;;;7.43;;
42192;SDS011;52467;40.114;18.306;2022-11-15T01:56:28;10.15;;;6.38;;
42192;SDS011;52467;40.114;18.306;2022-11-15T01:59:16;9.88;;;6.10;;
42192;SDS011;52467;40.114;18.306;2022-11-15T02:02:02;11.38;;;6.10;;
42192;SDS011;52467;40.114;18.306;2022-11-15T02:04:48;10.98;;;5.75;;
42192;SDS011;52467;40.114;18.306;2022-11-15T02:07:35;8.55;;;5.70;;
42192;SDS011;52467;40.114;18.306;2022-11-15T02:10:23;12.93;;;7.20;;
42192;SDS011;52467;40.114;18.306;2022-11-15T02:13:09;10.13;;;6.60;;
42192;SDS011;52467;40.114;18.306;2022-11-15T02:41:31;7.00;;;4.90;;
42192;SDS011;52467;40.114;18.306;2022-11-15T02:44:43;8.52;;;4.90;;
42192;SDS011;52467;40.114;18.306;2022-11-15T02:47:31;7.20;;;5.15;;
42192;SDS011;52467;40.114;18.306;2022-11-15T02:50:20;6.65;;;5.28;;
42192;SDS011;52467;40.114;18.306;2022-11-15T02:53:08;9.48;;;5.15;;
42192;SDS011;52467;40.114;18.306;2022-11-15T02:55:54;8.23;;;5.00;;
42192;SDS011;52467;40.114;18.306;2022-11-15T03:01:54;8.07;;;5.13;;
42192;SDS011;52467;40.114;18.306;2022-11-15T03:04:54;8.32;;;4.80;;
42192;SDS011;52467;40.114;18.306;2022-11-15T03:14:02;8.18;;;4.50;;
42192;SDS011;52467;40.114;18.306;2022-11-15T03:20:02;8.57;;;4.88;;
42192;SDS011;52467;40.114;18.306;2022-11-15T03:22:50;7.60;;;4.75;;
42192;SDS011;52467;40.114;18.306;2022-11-15T03:25:38;7.22;;;4.65;;
42192;SDS011;52467;40.114;18.306;2022-11-15T03:28:41;7.78;;;4.78;;
42192;SDS011;52467;40.114;18.306;2022-11-15T03:31:30;6.80;;;4.50;;
42192;SDS011;52467;40.114;18.306;2022-11-15T03:34:37;8.07;;;4.90;;
42192;SDS011;52467;40.114;18.306;2022-11-15T03:37:25;6.25;;;4.80;;
42192;SDS011;52467;40.114;18.306;2022-11-15T03:40:40;7.72;;;4.60;;
42192;SDS011;52467;40.114;18.306;2022-11-15T03:43:51;8.52;;;4.47;;
42192;SDS011;52467;40.114;18.306;2022-11-15T03:46:47;8.65;;;4.25;;
42192;SDS011;52467;40.114;18.306;2022-11-15T03:49:58;6.82;;;4.80;;
42192;SDS011;52467;40.114;18.306;2022-11-15T03:52:47;8.30;;;4.97;;
42192;SDS011;52467;40.114;18.306;2022-11-15T03:55:34;6.65;;;4.93;;
42192;SDS011;52467;40.114;18.306;2022-11-15T03:58:20;7.93;;;4.80;;
42192;SDS011;52467;40.114;18.306;2022-11-15T04:01:08;7.68;;;5.03;;
42192;SDS011;52467;40.114;18.306;2022-11-15T04:03:54;9.32;;;4.80;;
42192;SDS011;52467;40.114;18.306;2022-11-15T04:06:40;7.40;;;4.97;;
42192;SDS011;52467;40.114;18.306;2022-11-15T04:09:26;7.78;;;4.97;;
42192;SDS011;52467;40.114;18.306;2022-11-15T04:12:12;6.88;;;4.93;;
42192;SDS011;52467;40.114;18.306;2022-11-15T04:15:05;9.70;;;5.20;;
42192;SDS011;52467;40.114;18.306;2022-11-15T04:18:01;6.88;;;4.82;;
42192;SDS011;52467;40.114;18.306;2022-11-15T04:20:47;8.43;;;5.20;;
42192;SDS011;52467;40.114;18.306;2022-11-15T04:23:52;7.05;;;5.68;;
42192;SDS011;52467;40.114;18.306;2022-11-15T04:26:38;8.02;;;5.38;;
42192;SDS011;52467;40.114;18.306;2022-11-15T04:29:24;8.10;;;5.60;;
42192;SDS011;52467;40.114;18.306;2022-11-15T04:32:22;7.50;;;5.55;;
42192;SDS011;52467;40.114;18.306;2022-11-15T04:35:09;8.07;;;5.75;;
42192;SDS011;52467;40.114;18.306;2022-11-15T04:37:56;8.00;;;5.80;;
42192;SDS011;52467;40.114;18.306;2022-11-15T04:40:42;11.40;;;6.57;;
42192;SDS011;52467;40.114;18.306;2022-11-15T04:43:28;9.75;;;6.20;;
42192;SDS011;52467;40.114;18.306;2022-11-15T04:46:14;11.93;;;6.45;;
42192;SDS011;52467;40.114;18.306;2022-11-15T04:49:00;10.38;;;6.40;;
42192;SDS011;52467;40.114;18.306;2022-11-15T04:51:46;10.40;;;6.47;;
42192;SDS011;52467;40.114;18.306;2022-11-15T04:54:32;11.82;;;7.38;;
42192;SDS011;52467;40.114;18.306;2022-11-15T04:57:18;12.40;;;7.18;;
42192;SDS011;52467;40.114;18.306;2022-11-15T05:00:04;11.82;;;7.15;;
42192;SDS011;52467;40.114;18.306;2022-11-15T05:02:52;11.75;;;7.32;;
42192;SDS011;52467;40.114;18.306;2022-11-15T05:05:57;12.63;;;7.88;;
42192;SDS011;52467;40.114;18.306;2022-11-15T05:08:44;16.52;;;8.43;;
42192;SDS011;52467;40.114;18.306;2022-11-15T05:11:29;15.05;;;8.57;;
42192;SDS011;52467;40.114;18.306;2022-11-15T05:14:16;15.35;;;8.68;;
42192;SDS011;52467;40.114;18.306;2022-11-15T05:17:02;14.65;;;9.02;;
42192;SDS011;52467;40.114;18.306;2022-11-15T05:19:48;13.50;;;9.10;;
42192;SDS011;52467;40.114;18.306;2022-11-15T05:22:34;20.02;;;9.63;;
42192;SDS011;52467;40.114;18.306;2022-11-15T05:25:20;15.75;;;9.13;;
42192;SDS011;52467;40.114;18.306;2022-11-15T05:28:06;17.20;;;10.07;;
42192;SDS011;52467;40.114;18.306;2022-11-15T05:30:52;17.80;;;10.65;;
42192;SDS011;52467;40.114;18.306;2022-11-15T05:33:38;20.23;;;10.63;;
42192;SDS011;52467;40.114;18.306;2022-11-15T05:36:27;18.35;;;11.07;;
42192;SDS011;52467;40.114;18.306;2022-11-15T05:39:15;21.65;;;11.57;;
42192;SDS011;52467;40.114;18.306;2022-11-15T05:42:13;21.15;;;12.15;;
42192;SDS011;52467;40.114;18.306;2022-11-15T05:45:00;20.70;;;11.40;;
42192;SDS011;52467;40.114;18.306;2022-11-15T05:47:48;19.50;;;11.33;;
42192;SDS011;52467;40.114;18.306;2022-11-15T05:50:36;19.63;;;11.70;;
42192;SDS011;52467;40.114;18.306;2022-11-15T05:53:23;22.80;;;12.85;;
42192;SDS011;52467;40.114;18.306;2022-11-15T05:56:10;22.15;;;12.05;;
42192;SDS011;52467;40.114;18.306;2022-11-15T05:58:57;26.80;;;12.88;;
42192;SDS011;52467;40.114;18.306;2022-11-15T06:01:44;25.48;;;13.32;;
42192;SDS011;52467;40.114;18.306;2022-11-15T06:04:30;22.33;;;13.00;;
42192;SDS011;52467;40.114;18.306;2022-11-15T06:07:15;27.95;;;13.60;;
42192;SDS011;52467;40.114;18.306;2022-11-15T06:10:02;26.90;;;14.05;;
42192;SDS011;52467;40.114;18.306;2022-11-15T06:12:55;31.20;;;15.27;;
42192;SDS011;52467;40.114;18.306;2022-11-15T06:15:43;28.42;;;14.65;;
42192;SDS011;52467;40.114;18.306;2022-11-15T06:18:31;31.92;;;14.63;;
42192;SDS011;52467;40.114;18.306;2022-11-15T06:21:18;29.35;;;14.90;;
42192;SDS011;52467;40.114;18.306;2022-11-15T06:24:04;32.20;;;16.25;;
42192;SDS011;52467;40.114;18.306;2022-11-15T06:26:50;31.92;;;14.23;;
42192;SDS011;52467;40.114;18.306;2022-11-15T06:29:36;37.72;;;14.90;;
42192;SDS011;52467;40.114;18.306;2022-11-15T06:32:22;31.60;;;15.13;;
42192;SDS011;52467;40.114;18.306;2022-11-15T06:35:08;30.98;;;15.23;;
42192;SDS011;52467;40.114;18.306;2022-11-15T06:37:54;31.92;;;16.42;;
42192;SDS011;52467;40.114;18.306;2022-11-15T06:40:43;31.75;;;15.45;;
42192;SDS011;52467;40.114;18.306;2022-11-15T06:43:30;35.53;;;15.75;;
42192;SDS011;52467;40.114;18.306;2022-11-15T06:46:16;41.50;;;17.73;;
42192;SDS011;52467;40.114;18.306;2022-11-15T06:49:01;34.88;;;17.20;;
42192;SDS011;52467;40.114;18.306;2022-11-15T06:51:50;37.47;;;16.60;;
42192;SDS011;52467;40.114;18.306;2022-11-15T06:54:36;33.27;;;16.93;;
42192;SDS011;52467;40.114;18.306;2022-11-15T06:57:23;36.10;;;16.27;;
42192;SDS011;52467;40.114;18.306;2022-11-15T07:00:10;33.20;;;16.98;;
42192;SDS011;52467;40.114;18.306;2022-11-15T07:02:59;33.80;;;17.02;;
42192;SDS011;52467;40.114;18.306;2022-11-15T07:05:53;36.95;;;16.63;;
42192;SDS011;52467;40.114;18.306;2022-11-15T07:08:39;34.15;;;17.42;;
42192;SDS011;52467;40.114;18.306;2022-11-15T07:11:27;38.13;;;17.10;;
42192;SDS011;52467;40.114;18.306;2022-11-15T07:14:13;36.35;;;16.80;;
42192;SDS011;52467;40.114;18.306;2022-11-15T07:16:58;37.53;;;17.02;;
42192;SDS011;52467;40.114;18.306;2022-11-15T07:19:45;38.42;;;17.60;;
42192;SDS011;52467;40.114;18.306;2022-11-15T07:22:30;38.83;;;17.55;;
42192;SDS011;52467;40.114;18.306;2022-11-15T07:25:16;36.90;;;18.33;;
42192;SDS011;52467;40.114;18.306;2022-11-15T07:28:02;38.88;;;18.27;;
42192;SDS011;52467;40.114;18.306;2022-11-15T07:30:49;41.33;;;18.90;;
42192;SDS011;52467;40.114;18.306;2022-11-15T07:33:35;39.30;;;18.17;;
42192;SDS011;52467;40.114;18.306;2022-11-15T07:36:21;38.80;;;18.93;;
42192;SDS011;52467;40.114;18.306;2022-11-15T07:39:08;36.47;;;17.48;;
42192;SDS011;52467;40.114;18.306;2022-11-15T07:41:55;35.08;;;18.13;;
42192;SDS011;52467;40.114;18.306;2022-11-15T07:45:00;35.80;;;17.42;;
42192;SDS011;52467;40.114;18.306;2022-11-15T07:47:50;38.25;;;18.30;;
42192;SDS011;52467;40.114;18.306;2022-11-15T07:50:36;35.17;;;16.77;;
42192;SDS011;52467;40.114;18.306;2022-11-15T07:53:22;37.67;;;17.25;;
42192;SDS011;52467;40.114;18.306;2022-11-15T07:56:09;30.25;;;16.90;;
42192;SDS011;52467;40.114;18.306;2022-11-15T07:58:55;27.97;;;14.67;;
42192;SDS011;52467;40.114;18.306;2022-11-15T08:01:43;27.15;;;13.68;;
42192;SDS011;52467;40.114;18.306;2022-11-15T08:04:28;25.85;;;14.43;;
42192;SDS011;52467;40.114;18.306;2022-11-15T08:07:14;25.73;;;13.47;;
42192;SDS011;52467;40.114;18.306;2022-11-15T08:10:00;23.80;;;13.10;;
42192;SDS011;52467;40.114;18.306;2022-11-15T08:12:46;19.77;;;11.90;;
42192;SDS011;52467;40.114;18.306;2022-11-15T08:15:32;22.20;;;11.30;;
42192;SDS011;52467;40.114;18.306;2022-11-15T08:18:19;18.40;;;10.80;;
42192;SDS011;52467;40.114;18.306;2022-11-15T08:21:05;18.83;;;10.65;;
42192;SDS011;52467;40.114;18.306;2022-11-15T08:23:51;19.25;;;10.40;;
42192;SDS011;52467;40.114;18.306;2022-11-15T08:26:37;16.38;;;9.38;;
42192;SDS011;52467;40.114;18.306;2022-11-15T08:29:23;18.67;;;10.02;;
42192;SDS011;52467;40.114;18.306;2022-11-15T08:32:09;16.92;;;10.65;;
42192;SDS011;52467;40.114;18.306;2022-11-15T08:34:56;18.65;;;9.88;;
42192;SDS011;52467;40.114;18.306;2022-11-15T08:37:42;19.58;;;11.00;;
42192;SDS011;52467;40.114;18.306;2022-11-15T08:40:28;18.48;;;10.65;;
42192;SDS011;52467;40.114;18.306;2022-11-15T08:43:14;27.05;;;13.75;;
42192;SDS011;52467;40.114;18.306;2022-11-15T08:46:00;32.47;;;16.88;;
42192;SDS011;52467;40.114;18.306;2022-11-15T08:48:46;29.77;;;16.20;;
42192;SDS011;52467;40.114;18.306;2022-11-15T08:51:32;32.42;;;16.85;;
42192;SDS011;52467;40.114;18.306;2022-11-15T08:54:18;30.10;;;15.63;;
42192;SDS011;52467;40.114;18.306;2022-11-15T08:57:04;27.40;;;15.05;;
42192;SDS011;52467;40.114;18.306;2022-11-15T08:59:50;27.47;;;15.00;;
42192;SDS011;52467;40.114;18.306;2022-11-15T09:02:37;27.33;;;13.98;;
42192;SDS011;52467;40.114;18.306;2022-11-15T09:05:24;22.40;;;11.18;;
42192;SDS011;52467;40.114;18.306;2022-11-15T09:08:10;16.00;;;8.95;;
42192;SDS011;52467;40.114;18.306;2022-11-15T09:11:16;17.00;;;8.45;;
42192;SDS011;52467;40.114;18.306;2022-11-15T09:14:05;15.98;;;8.15;;
42192;SDS011;52467;40.114;18.306;2022-11-15T09:16:51;14.55;;;8.15;;
42192;SDS011;52467;40.114;18.306;2022-11-15T09:19:37;12.35;;;7.13;;
42192;SDS011;52467;40.114;18.306;2022-11-15T09:22:23;12.98;;;7.07;;
42192;SDS011;52467;40.114;18.306;2022-11-15T09:25:09;9.48;;;6.55;;
42192;SDS011;52467;40.114;18.306;2022-11-15T09:27:55;12.38;;;7.15;;
42192;SDS011;52467;40.114;18.306;2022-11-15T09:30:42;10.43;;;6.03;;
42192;SDS011;52467;40.114;18.306;2022-11-15T09:33:28;9.73;;;6.00;;
42192;SDS011;52467;40.114;18.306;2022-11-15T09:36:14;9.65;;;6.28;;
42192;SDS011;52467;40.114;18.306;2022-11-15T09:39:02;13.50;;;7.03;;
42192;SDS011;52467;40.114;18.306;2022-11-15T09:41:50;10.02;;;6.13;;
42192;SDS011;52467;40.114;18.306;2022-11-15T09:50:55;12.03;;;7.17;;
42192;SDS011;52467;40.114;18.306;2022-11-15T09:53:26;9.50;;;6.00;;
42192;SDS011;52467;40.114;18.306;2022-11-15T09:56:18;9.35;;;6.22;;
42192;SDS011;52467;40.114;18.306;2022-11-15T10:04:33;14.25;;;6.30;;
42192;SDS011;52467;40.114;18.306;2022-11-15T10:07:04;10.57;;;5.93;;
42192;SDS011;52467;40.114;18.306;2022-11-15T10:09:51;9.77;;;6.13;;
42192;SDS011;52467;40.114;18.306;2022-11-15T10:12:25;11.10;;;5.88;;
42192;SDS011;52467;40.114;18.306;2022-11-15T10:15:04;9.15;;;5.38;;
42192;SDS011;52467;40.114;18.306;2022-11-15T10:20:19;8.05;;;5.00;;
42192;SDS011;52467;40.114;18.306;2022-11-15T10:22:52;8.53;;;4.93;;
42192;SDS011;52467;40.114;18.306;2022-11-15T10:25:25;10.38;;;4.75;;
42192;SDS011;52467;40.114;18.306;2022-11-15T10:30:50;7.65;;;3.72;;
42192;SDS011;52467;40.114;18.306;2022-11-15T10:33:36;7.90;;;4.30;;
42192;SDS011;52467;40.114;18.306;2022-11-15T10:44:02;10.93;;;4.40;;
42192;SDS011;52467;40.114;18.306;2022-11-15T10:46:29;7.17;;;4.30;;
42192;SDS011;52467;40.114;18.306;2022-11-15T10:49:14;8.23;;;4.18;;
42192;SDS011;52467;40.114;18.306;2022-11-15T10:54:48;8.10;;;4.00;;
42192;SDS011;52467;40.114;18.306;2022-11-15T10:57:25;8.43;;;4.40;;
42192;SDS011;52467;40.114;18.306;2022-11-15T10:59:55;6.05;;;4.07;;
42192;SDS011;52467;40.114;18.306;2022-11-15T11:05:44;8.43;;;4.03;;
42192;SDS011;52467;40.114;18.306;2022-11-15T11:10:37;6.55;;;4.40;;
42192;SDS011;52467;40.114;18.306;2022-11-15T11:13:24;5.87;;;4.07;;
42192;SDS011;52467;40.114;18.306;2022-11-15T11:16:23;5.70;;;4.20;;
42192;SDS011;52467;40.114;18.306;2022-11-15T11:19:04;6.22;;;3.00;;
42192;SDS011;52467;40.114;18.306;2022-11-15T11:24:40;5.80;;;3.25;;
42192;SDS011;52467;40.114;18.306;2022-11-15T11:32:58;4.43;;;2.67;;
42192;SDS011;52467;40.114;18.306;2022-11-15T11:41:27;4.72;;;2.10;;
42192;SDS011;52467;40.114;18.306;2022-11-15T11:47:21;6.30;;;2.38;;
42192;SDS011;52467;40.114;18.306;2022-11-15T11:49:51;6.87;;;2.90;;
42192;SDS011;52467;40.114;18.306;2022-11-15T11:55:11;4.73;;;2.67;;
42192;SDS011;52467;40.114;18.306;2022-11-15T12:00:41;6.80;;;3.05;;
42192;SDS011;52467;40.114;18.306;2022-11-15T12:03:28;4.37;;;2.70;;
42192;SDS011;52467;40.114;18.306;2022-11-15T12:06:30;6.32;;;2.80;;
42192;SDS011;52467;40.114;18.306;2022-11-15T12:17:18;4.90;;;3.08;;
42192;SDS011;52467;40.114;18.306;2022-11-15T12:20:00;6.60;;;3.37;;
42192;SDS011;52467;40.114;18.306;2022-11-15T12:25:05;6.82;;;3.58;;
42192;SDS011;52467;40.114;18.306;2022-11-15T12:28:24;5.70;;;3.05;;
42192;SDS011;52467;40.114;18.306;2022-11-15T12:30:44;6.05;;;2.80;;
42192;SDS011;52467;40.114;18.306;2022-11-15T12:41:21;4.93;;;2.90;;
42192;SDS011;52467;40.114;18.306;2022-11-15T12:44:55;7.35;;;2.88;;
42192;SDS011;52467;40.114;18.306;2022-11-15T12:47:13;6.23;;;2.73;;
42192;SDS011;52467;40.114;18.306;2022-11-15T12:49:50;7.25;;;2.92;;
42192;SDS011;52467;40.114;18.306;2022-11-15T12:52:18;6.20;;;2.67;;
42192;SDS011;52467;40.114;18.306;2022-11-15T12:54:50;4.80;;;2.70;;
42192;SDS011;52467;40.114;18.306;2022-11-15T12:59:50;3.70;;;2.30;;
42192;SDS011;52467;40.114;18.306;2022-11-15T13:02:48;5.07;;;2.72;;
42192;SDS011;52467;40.114;18.306;2022-11-15T13:12:57;5.60;;;2.20;;
42192;SDS011;52467;40.114;18.306;2022-11-15T13:18:27;4.20;;;2.28;;
42192;SDS011;52467;40.114;18.306;2022-11-15T13:20:57;2.63;;;1.60;;
42192;SDS011;52467;40.114;18.306;2022-11-15T13:23:27;3.70;;;1.50;;
42192;SDS011;52467;40.114;18.306;2022-11-15T13:39:49;5.10;;;1.70;;
42192;SDS011;52467;40.114;18.306;2022-11-15T13:42:18;2.80;;;1.70;;
42192;SDS011;52467;40.114;18.306;2022-11-15T13:44:57;2.20;;;1.60;;
42192;SDS011;52467;40.114;18.306;2022-11-15T13:47:29;4.85;;;1.80;;
42192;SDS011;52467;40.114;18.306;2022-11-15T13:49:58;4.00;;;1.85;;
42192;SDS011;52467;40.114;18.306;2022-11-15T13:52:28;2.75;;;1.67;;
42192;SDS011;52467;40.114;18.306;2022-11-15T13:55:32;4.00;;;2.00;;
42192;SDS011;52467;40.114;18.306;2022-11-15T13:58:02;4.20;;;2.10;;
42192;SDS011;52467;40.114;18.306;2022-11-15T14:03:13;3.70;;;2.03;;
42192;SDS011;52467;40.114;18.306;2022-11-15T14:06:09;7.43;;;2.40;;
42192;SDS011;52467;40.114;18.306;2022-11-15T14:11:35;6.28;;;2.97;;
42192;SDS011;52467;40.114;18.306;2022-11-15T14:16:43;6.87;;;3.20;;
42192;SDS011;52467;40.114;18.306;2022-11-15T14:25:05;6.70;;;3.10;;
42192;SDS011;52467;40.114;18.306;2022-11-15T14:27:36;4.53;;;2.53;;
42192;SDS011;52467;40.114;18.306;2022-11-15T14:30:04;8.23;;;3.03;;
42192;SDS011;52467;40.114;18.306;2022-11-15T14:32:45;6.93;;;2.87;;
42192;SDS011;52467;40.114;18.306;2022-11-15T14:35:20;5.53;;;2.90;;
42192;SDS011;52467;40.114;18.306;2022-11-15T14:37:49;5.23;;;3.00;;
42192;SDS011;52467;40.114;18.306;2022-11-15T14:40:17;7.97;;;2.88;;
42192;SDS011;52467;40.114;18.306;2022-11-15T14:42:46;5.63;;;3.20;;
42192;SDS011;52467;40.114;18.306;2022-11-15T14:45:16;6.17;;;2.87;;
42192;SDS011;52467;40.114;18.306;2022-11-15T14:47:45;5.03;;;3.07;;
42192;SDS011;52467;40.114;18.306;2022-11-15T14:50:13;5.70;;;3.25;;
42192;SDS011;52467;40.114;18.306;2022-11-15T14:52:45;8.02;;;3.35;;
42192;SDS011;52467;40.114;18.306;2022-11-15T14:55:15;6.63;;;3.40;;
42192;SDS011;52467;40.114;18.306;2022-11-15T14:57:47;7.20;;;3.00;;
42192;SDS011;52467;40.114;18.306;2022-11-15T15:00:15;6.65;;;3.20;;
42192;SDS011;52467;40.114;18.306;2022-11-15T15:02:43;6.37;;;3.40;;
42192;SDS011;52467;40.114;18.306;2022-11-15T15:05:13;6.63;;;3.30;;
42192;SDS011;52467;40.114;18.306;2022-11-15T15:07:51;6.05;;;3.00;;
42192;SDS011;52467;40.114;18.306;2022-11-15T15:10:19;6.53;;;3.20;;
42192;SDS011;52467;40.114;18.306;2022-11-15T15:13:05;3.85;;;3.03;;
42192;SDS011;52467;40.114;18.306;2022-11-15T15:15:34;5.85;;;3.58;;
42192;SDS011;52467;40.114;18.306;2022-11-15T15:18:05;8.30;;;4.07;;
42192;SDS011;52467;40.114;18.306;2022-11-15T15:20:36;9.73;;;4.70;;
42192;SDS011;52467;40.114;18.306;2022-11-15T15:23:08;6.20;;;3.58;;
42192;SDS011;52467;40.114;18.306;2022-11-15T15:25:43;6.37;;;3.97;;
42192;SDS011;52467;40.114;18.306;2022-11-15T15:28:12;7.55;;;4.00;;
42192;SDS011;52467;40.114;18.306;2022-11-15T15:30:41;7.90;;;3.95;;
42192;SDS011;52467;40.114;18.306;2022-11-15T15:33:08;6.93;;;3.58;;
42192;SDS011;52467;40.114;18.306;2022-11-15T15:35:36;6.63;;;3.58;;
42192;SDS011;52467;40.114;18.306;2022-11-15T15:38:03;8.27;;;3.60;;
42192;SDS011;52467;40.114;18.306;2022-11-15T15:40:31;8.30;;;3.88;;
42192;SDS011;52467;40.114;18.306;2022-11-15T15:42:59;10.07;;;4.23;;
42192;SDS011;52467;40.114;18.306;2022-11-15T15:45:27;8.43;;;4.72;;
42192;SDS011;52467;40.114;18.306;2022-11-15T15:47:55;8.47;;;4.37;;
42192;SDS011;52467;40.114;18.306;2022-11-15T15:50:24;8.93;;;4.57;;
42192;SDS011;52467;40.114;18.306;2022-11-15T15:52:52;9.55;;;5.25;;
42192;SDS011;52467;40.114;18.306;2022-11-15T15:55:21;9.90;;;4.80;;
42192;SDS011;52467;40.114;18.306;2022-11-15T15:57:49;9.63;;;5.25;;
42192;SDS011;52467;40.114;18.306;2022-11-15T16:00:16;13.40;;;4.93;;
42192;SDS011;52467;40.114;18.306;2022-11-15T16:02:45;9.68;;;4.72;;
42192;SDS011;52467;40.114;18.306;2022-11-15T16:05:12;8.75;;;5.22;;
42192;SDS011;52467;40.114;18.306;2022-11-15T16:07:40;11.38;;;4.80;;
42192;SDS011;52467;40.114;18.306;2022-11-15T16:12:49;9.57;;;5.23;;
42192;SDS011;52467;40.114;18.306;2022-11-15T16:15:16;9.00;;;5.32;;
42192;SDS011;52467;40.114;18.306;2022-11-15T16:17:56;10.80;;;6.43;;
42192;SDS011;52467;40.114;18.306;2022-11-15T16:20:44;11.23;;;5.93;;
42192;SDS011;52467;40.114;18.306;2022-11-15T16:23:16;11.95;;;6.90;;
42192;SDS011;52467;40.114;18.306;2022-11-15T16:25:53;10.98;;;6.50;;
42192;SDS011;52467;40.114;18.306;2022-11-15T16:28:29;12.35;;;6.65;;
42192;SDS011;52467;40.114;18.306;2022-11-15T16:33:32;12.70;;;6.50;;
42192;SDS011;52467;40.114;18.306;2022-11-15T16:35:59;10.68;;;6.30;;
42192;SDS011;52467;40.114;18.306;2022-11-15T16:38:27;7.77;;;5.60;;
42192;SDS011;52467;40.114;18.306;2022-11-15T16:40:55;13.32;;;6.25;;
42192;SDS011;52467;40.114;18.306;2022-11-15T16:43:22;11.00;;;6.20;;
42192;SDS011;52467;40.114;18.306;2022-11-15T16:45:50;9.90;;;5.60;;
42192;SDS011;52467;40.114;18.306;2022-11-15T16:48:25;11.43;;;6.15;;
42192;SDS011;52467;40.114;18.306;2022-11-15T16:50:56;15.98;;;7.72;;
42192;SDS011;52467;40.114;18.306;2022-11-15T16:53:25;13.60;;;7.45;;
42192;SDS011;52467;40.114;18.306;2022-11-15T16:55:56;12.03;;;6.63;;
42192;SDS011;52467;40.114;18.306;2022-11-15T16:58:23;12.45;;;7.63;;
42192;SDS011;52467;40.114;18.306;2022-11-15T17:00:51;19.10;;;8.77;;
42192;SDS011;52467;40.114;18.306;2022-11-15T17:03:20;15.65;;;8.95;;
42192;SDS011;52467;40.114;18.306;2022-11-15T17:05:48;15.43;;;8.95;;
42192;SDS011;52467;40.114;18.306;2022-11-15T17:08:16;12.68;;;7.85;;
42192;SDS011;52467;40.114;18.306;2022-11-15T17:10:43;20.88;;;8.18;;
42192;SDS011;52467;40.114;18.306;2022-11-15T17:13:11;13.00;;;7.40;;
42192;SDS011;52467;40.114;18.306;2022-11-15T17:15:39;14.98;;;7.53;;
42192;SDS011;52467;40.114;18.306;2022-11-15T17:18:09;18.97;;;7.97;;
42192;SDS011;52467;40.114;18.306;2022-11-15T17:20:39;16.00;;;8.18;;
42192;SDS011;52467;40.114;18.306;2022-11-15T17:23:10;14.20;;;7.63;;
42192;SDS011;52467;40.114;18.306;2022-11-15T17:25:40;13.95;;;8.00;;
42192;SDS011;52467;40.114;18.306;2022-11-15T17:28:07;14.85;;;8.00;;
42192;SDS011;52467;40.114;18.306;2022-11-15T17:30:35;19.58;;;8.88;;
42192;SDS011;52467;40.114;18.306;2022-11-15T17:33:02;16.25;;;9.25;;
42192;SDS011;52467;40.114;18.306;2022-11-15T17:35:30;15.17;;;9.13;;
42192;SDS011;52467;40.114;18.306;2022-11-15T17:37:58;16.33;;;8.55;;
42192;SDS011;52467;40.114;18.306;2022-11-15T17:40:25;17.15;;;8.98;;
42192;SDS011;52467;40.114;18.306;2022-11-15T17:42:53;17.90;;;9.38;;
42192;SDS011;52467;40.114;18.306;2022-11-15T17:45:21;18.77;;;9.73;;
42192;SDS011;52467;40.114;18.306;2022-11-15T17:47:48;26.97;;;11.50;;
42192;SDS011;52467;40.114;18.306;2022-11-15T17:50:15;27.90;;;13.27;;
42192;SDS011;52467;40.114;18.306;2022-11-15T17:52:43;32.33;;;17.10;;
42192;SDS011;52467;40.114;18.306;2022-11-15T17:55:10;32.15;;;16.90;;
42192;SDS011;52467;40.114;18.306;2022-11-15T17:57:38;29.20;;;15.68;;
42192;SDS011;52467;40.114;18.306;2022-11-15T18:00:08;30.88;;;15.52;;
42192;SDS011;52467;40.114;18.306;2022-11-15T18:02:36;35.08;;;17.40;;
42192;SDS011;52467;40.114;18.306;2022-11-15T18:05:04;36.80;;;18.45;;
42192;SDS011;52467;40.114;18.306;2022-11-15T18:07:31;38.72;;;19.38;;
42192;SDS011;52467;40.114;18.306;2022-11-15T18:09:59;36.60;;;19.20;;
42192;SDS011;52467;40.114;18.306;2022-11-15T18:12:26;33.83;;;19.70;;
42192;SDS011;52467;40.114;18.306;2022-11-15T18:14:53;32.90;;;18.08;;
42192;SDS011;52467;40.114;18.306;2022-11-15T18:17:21;35.92;;;18.17;;
42192;SDS011;52467;40.114;18.306;2022-11-15T18:20:09;27.07;;;15.23;;
42192;SDS011;52467;40.114;18.306;2022-11-15T18:22:37;28.08;;;13.95;;
42192;SDS011;52467;40.114;18.306;2022-11-15T18:25:05;27.58;;;14.13;;
42192;SDS011;52467;40.114;18.306;2022-11-15T18:27:40;24.40;;;12.23;;